Terminal Aerodrome Forecast
Issued by NWS

Home | Current Version | Previous Version | Text Only | Print | Product List | Glossary On
Versions: 1 2 3 4 5 6 7 8 9 10 11 12 13 14 15 16 17 18 19 20 21 22 23 24 25 26 27 28
000
FTUS42 KCAE 230539
TAFOGB
TAF
KOGB 230539Z 2306/2406 09005KT 6SM -RA BKN006 OVC012
     FM231200 15008KT 4SM -SHRA BR SCT006 OVC015
     FM231500 15010G17KT 5SM -SHRA BR SCT006 OVC015
     FM240400 24005KT P6SM OVC015=

USA.gov is the U.S. government's official web portal to all federal, state and local government web resources and services.